createdAt,value
2022-12-06T00:00:13.080Z,18.73
2022-12-06T00:02:42.603Z,18.98
2022-12-06T00:05:12.390Z,18.10
2022-12-06T00:07:44.663Z,18.63
2022-12-06T00:10:14.646Z,17.88
2022-12-06T00:12:44.156Z,17.58
2022-12-06T00:15:14.089Z,17.88
2022-12-06T00:17:43.630Z,19.30
2022-12-06T00:20:13.790Z,18.77
2022-12-06T00:22:49.265Z,18.73
2022-12-06T00:25:19.171Z,19.80
2022-12-06T00:27:48.663Z,20.60
2022-12-06T00:30:18.701Z,20.27
2022-12-06T00:32:48.224Z,20.73
2022-12-06T00:35:17.995Z,20.70
2022-12-06T00:37:50.100Z,23.40
2022-12-06T00:40:19.929Z,23.90
2022-12-06T00:42:49.532Z,22.98
2022-12-06T00:45:19.327Z,22.87
2022-12-06T00:47:48.886Z,25.17
2022-12-06T00:50:18.607Z,23.77
2022-12-06T00:52:50.761Z,25.17
2022-12-06T00:55:20.344Z,25.08
2022-12-06T00:57:50.364Z,26.20
2022-12-06T01:00:20.693Z,25.58
2022-12-06T01:02:50.284Z,26.85
2022-12-06T01:05:19.937Z,25.83
2022-12-06T01:07:52.195Z,23.70
2022-12-06T01:10:21.818Z,26.67
2022-12-06T01:12:51.399Z,26.83
2022-12-06T01:15:21.084Z,25.15
2022-12-06T01:17:50.672Z,22.55
2022-12-06T01:20:20.481Z,22.88
2022-12-06T01:22:52.799Z,24.10
2022-12-06T01:25:25.280Z,23.63
2022-12-06T01:27:55.801Z,23.90
2022-12-06T01:30:25.466Z,21.98
2022-12-06T01:32:55.066Z,21.73
2022-12-06T01:35:24.681Z,22.75
2022-12-06T01:37:58.537Z,21.65
2022-12-06T01:40:31.387Z,21.15
2022-12-06T01:43:00.968Z,21.13
2022-12-06T01:45:30.693Z,21.02
2022-12-06T01:48:00.686Z,22.20
2022-12-06T01:50:32.817Z,22.80
2022-12-06T01:53:07.006Z,21.20
2022-12-06T01:55:39.602Z,22.15
2022-12-06T01:58:12.660Z,22.77
2022-12-06T02:00:42.248Z,23.38
2022-12-06T02:03:15.080Z,22.08
2022-12-06T02:05:45.387Z,22.42
2022-12-06T02:08:18.215Z,21.52
2022-12-06T02:10:47.841Z,20.67
2022-12-06T02:13:17.481Z,21.50
2022-12-06T02:15:55.106Z,21.10
2022-12-06T02:18:40.788Z,19.10
2022-12-06T02:21:17.025Z,20.33
2022-12-06T02:24:09.322Z,20.70
2022-12-06T02:26:44.980Z,21.30
2022-12-06T02:29:44.625Z,19.75
2022-12-06T02:32:20.511Z,18.85
2022-12-06T02:34:56.696Z,19.85
2022-12-06T02:37:30.243Z,18.92
2022-12-06T02:40:03.845Z,18.90
2022-12-06T02:42:37.444Z,19.00
2022-12-06T02:45:12.371Z,17.77
2022-12-06T02:47:45.643Z,18.20
2022-12-06T02:50:19.463Z,19.58
2022-12-06T02:52:52.744Z,19.00
2022-12-06T02:55:24.091Z,19.38
2022-12-06T02:57:56.951Z,18.70
2022-12-06T03:00:38.722Z,19.23
2022-12-06T03:03:34.018Z,19.48
2022-12-06T03:06:25.181Z,20.88
2022-12-06T03:09:05.661Z,20.55
2022-12-06T03:11:40.938Z,19.40
2022-12-06T03:14:14.917Z,19.50
2022-12-06T03:16:49.615Z,17.98
2022-12-06T03:19:23.360Z,18.55
2022-12-06T03:21:58.512Z,19.48
2022-12-06T03:24:29.235Z,18.42
2022-12-06T03:27:00.399Z,20.30
2022-12-06T03:29:31.843Z,20.02
2022-12-06T03:32:03.419Z,21.70
2022-12-06T03:34:39.061Z,24.30
2022-12-06T03:37:10.445Z,23.48
2022-12-06T03:39:44.762Z,25.92
2022-12-06T03:42:14.520Z,25.48
2022-12-06T03:44:44.254Z,25.73
2022-12-06T03:47:16.883Z,24.73
2022-12-06T03:49:50.741Z,23.63
2022-12-06T03:52:20.327Z,25.40
2022-12-06T03:54:49.878Z,25.10
2022-12-06T03:57:19.549Z,23.90
2022-12-06T03:59:49.092Z,26.30
2022-12-06T04:02:18.807Z,26.63
2022-12-06T04:04:51.124Z,23.33
2022-12-06T04:07:21.364Z,23.37
2022-12-06T04:10:03.371Z,24.13
2022-12-06T04:12:46.015Z,22.48
2022-12-06T04:15:15.786Z,23.63
2022-12-06T04:17:58.345Z,22.83
2022-12-06T04:20:51.531Z,22.90
2022-12-06T04:23:19.202Z,22.25
2022-12-06T04:25:49.177Z,26.17
2022-12-06T04:28:31.381Z,23.80
2022-12-06T04:31:17.184Z,25.60
2022-12-06T04:34:03.702Z,23.75
2022-12-06T04:36:48.290Z,26.33
2022-12-06T04:39:21.129Z,26.27
2022-12-06T04:42:03.443Z,26.52
2022-12-06T04:44:33.101Z,26.55
2022-12-06T04:47:02.853Z,24.50
2022-12-06T04:49:32.510Z,24.77
2022-12-06T04:52:04.707Z,25.00
2022-12-06T04:54:34.492Z,26.73
2022-12-06T04:57:04.369Z,28.07
2022-12-06T04:59:34.009Z,25.75
2022-12-06T05:02:03.646Z,24.58
2022-12-06T05:04:33.213Z,24.08
2022-12-06T05:07:05.461Z,26.95
2022-12-06T05:09:35.141Z,25.52
2022-12-06T05:12:04.693Z,24.52
2022-12-06T05:14:34.488Z,22.98
2022-12-06T05:17:04.059Z,23.60
2022-12-06T05:19:33.661Z,24.70
2022-12-06T05:22:05.816Z,24.42
2022-12-06T05:24:35.735Z,22.83
2022-12-06T05:27:05.441Z,24.05
2022-12-06T05:29:35.243Z,24.75
2022-12-06T05:32:04.983Z,21.85
2022-12-06T05:34:34.621Z,24.50
2022-12-06T05:37:06.738Z,23.25
2022-12-06T05:39:36.360Z,24.40
2022-12-06T05:42:06.104Z,25.35
2022-12-06T05:44:35.749Z,22.77
2022-12-06T05:47:05.395Z,27.30
2022-12-06T05:49:35.045Z,27.60
2022-12-06T05:52:09.833Z,26.55
2022-12-06T05:54:39.483Z,25.33
2022-12-06T05:57:09.043Z,23.77
2022-12-06T05:59:38.660Z,25.87
2022-12-06T06:02:08.431Z,26.80
2022-12-06T06:04:38.229Z,29.10
2022-12-06T06:07:10.372Z,27.90
2022-12-06T06:09:39.969Z,27.90
2022-12-06T06:12:12.597Z,29.52
2022-12-06T06:14:42.670Z,30.35
2022-12-06T06:17:12.286Z,29.10
2022-12-06T06:19:42.288Z,34.00
2022-12-06T06:22:14.633Z,32.67
2022-12-06T06:24:45.079Z,32.47
2022-12-06T06:27:14.788Z,33.45
2022-12-06T06:29:45.633Z,30.00
2022-12-06T06:32:15.532Z,29.03
2022-12-06T06:34:45.146Z,30.15
2022-12-06T06:37:17.447Z,26.27
2022-12-06T06:39:47.069Z,26.70
2022-12-06T06:42:17.585Z,25.80
2022-12-06T06:44:47.131Z,25.90
2022-12-06T06:47:16.653Z,25.70
2022-12-06T06:49:46.213Z,26.58
2022-12-06T06:52:18.453Z,25.20
2022-12-06T06:54:48.107Z,25.60
2022-12-06T06:57:18.402Z,24.42
2022-12-06T06:59:48.011Z,24.70
2022-12-06T07:02:19.221Z,24.92
2022-12-06T07:04:49.914Z,23.58
2022-12-06T07:07:22.114Z,22.27
2022-12-06T07:09:51.842Z,24.17
2022-12-06T07:12:21.365Z,22.10
2022-12-06T07:14:51.022Z,22.30
2022-12-06T07:17:20.611Z,22.83
2022-12-06T07:19:50.436Z,21.42
2022-12-06T07:22:22.615Z,20.90
2022-12-06T07:24:52.546Z,20.95
2022-12-06T07:27:22.221Z,21.87
2022-12-06T07:29:51.853Z,24.73
2022-12-06T07:32:21.391Z,24.50
2022-12-06T07:34:51.055Z,24.05
2022-12-06T07:37:23.351Z,21.85
2022-12-06T07:39:52.894Z,22.95
2022-12-06T07:42:34.872Z,23.92
2022-12-06T07:45:05.625Z,22.13
2022-12-06T07:47:36.537Z,22.65
2022-12-06T07:50:07.123Z,23.35
2022-12-06T07:52:40.322Z,22.42
2022-12-06T07:55:12.084Z,24.70
2022-12-06T07:57:43.998Z,22.85
2022-12-06T08:00:16.042Z,24.40
2022-12-06T08:02:45.956Z,25.85
2022-12-06T08:05:15.485Z,24.00
2022-12-06T08:07:47.813Z,23.23
2022-12-06T08:10:17.472Z,25.80
2022-12-06T08:12:47.030Z,23.98
2022-12-06T08:15:16.608Z,25.13
2022-12-06T08:17:46.807Z,25.27
2022-12-06T08:20:16.400Z,24.73
2022-12-06T08:22:48.580Z,24.80
2022-12-06T08:25:18.486Z,24.60
2022-12-06T08:27:47.966Z,23.67
2022-12-06T08:30:17.934Z,22.80
2022-12-06T08:32:47.478Z,22.77
2022-12-06T08:35:17.198Z,23.77
2022-12-06T08:37:49.622Z,20.50
2022-12-06T08:40:19.363Z,24.00
2022-12-06T08:42:48.918Z,26.10
2022-12-06T08:45:18.727Z,25.92
2022-12-06T08:47:48.322Z,24.80
2022-12-06T08:50:17.865Z,25.15
2022-12-06T08:52:50.090Z,23.60
2022-12-06T08:55:19.843Z,25.40
2022-12-06T08:57:49.374Z,25.40
2022-12-06T09:00:20.213Z,23.63
2022-12-06T09:02:49.811Z,24.45
2022-12-06T09:05:19.541Z,23.80
2022-12-06T09:07:51.837Z,25.02
2022-12-06T09:10:21.687Z,23.35
2022-12-06T09:12:51.238Z,24.50
2022-12-06T09:15:20.986Z,22.80
2022-12-06T09:17:50.554Z,24.27
2022-12-06T09:20:20.660Z,25.42
2022-12-06T09:22:52.793Z,23.48
2022-12-06T09:25:22.367Z,27.95
2022-12-06T09:27:51.924Z,31.13
2022-12-06T09:30:21.515Z,29.48
2022-12-06T09:32:51.520Z,29.10
2022-12-06T09:35:25.082Z,28.75
2022-12-06T09:37:57.657Z,29.47
2022-12-06T09:40:31.939Z,29.33
2022-12-06T09:43:10.591Z,28.42
2022-12-06T09:45:59.250Z,27.98
2022-12-06T09:48:50.372Z,28.42
2022-12-06T09:51:33.162Z,28.98
2022-12-06T09:54:15.768Z,28.77
2022-12-06T09:56:49.917Z,29.40
2022-12-06T09:59:25.509Z,28.90
2022-12-06T10:02:05.787Z,27.48
2022-12-06T10:04:59.450Z,30.13
2022-12-06T10:07:33.712Z,28.60
2022-12-06T10:10:17.350Z,29.05
2022-12-06T10:12:56.807Z,26.08
2022-12-06T10:15:32.297Z,25.70
2022-12-06T10:18:20.312Z,25.80
2022-12-06T10:20:54.852Z,27.70
2022-12-06T10:23:33.113Z,25.77
2022-12-06T10:26:14.212Z,26.30
2022-12-06T10:28:47.305Z,26.30
2022-12-06T10:31:25.007Z,26.67
2022-12-06T10:33:57.856Z,24.60
2022-12-06T10:36:39.599Z,26.33
2022-12-06T10:39:17.373Z,29.30
2022-12-06T10:41:51.379Z,26.70
2022-12-06T10:44:25.933Z,27.23
2022-12-06T10:47:05.041Z,27.20
2022-12-06T10:49:52.041Z,27.67
2022-12-06T10:52:34.598Z,27.70
2022-12-06T10:55:16.442Z,26.48
2022-12-06T10:57:52.007Z,26.20
2022-12-06T11:00:24.520Z,25.60
2022-12-06T11:02:59.226Z,29.42
2022-12-06T11:05:31.524Z,31.90
2022-12-06T11:08:06.492Z,29.10
2022-12-06T11:10:37.317Z,30.45
2022-12-06T11:13:20.409Z,29.65
2022-12-06T11:15:54.090Z,26.40
2022-12-06T11:18:24.136Z,25.67
2022-12-06T11:20:58.613Z,25.03
2022-12-06T11:23:32.726Z,24.27
2022-12-06T11:26:07.723Z,23.17
2022-12-06T11:28:42.011Z,24.80
2022-12-06T11:31:23.402Z,25.17
2022-12-06T11:33:53.195Z,25.30
2022-12-06T11:36:23.280Z,24.25
2022-12-06T11:38:52.833Z,21.77
2022-12-06T11:41:25.469Z,21.60
2022-12-06T11:43:58.579Z,21.25
2022-12-06T11:46:28.754Z,22.33
2022-12-06T11:49:01.663Z,21.67
2022-12-06T11:51:31.211Z,22.00
2022-12-06T11:54:03.931Z,20.33
2022-12-06T11:56:35.705Z,19.80
2022-12-06T12:02:07.179Z,14.10
2022-12-06T12:04:39.638Z,14.10
2022-12-06T12:07:15.552Z,14.30
2022-12-06T12:09:52.848Z,12.68
2022-12-06T12:12:25.207Z,12.98
2022-12-06T12:14:59.653Z,11.82
2022-12-06T12:17:34.333Z,11.65
2022-12-06T12:20:06.967Z,10.70
2022-12-06T12:22:38.866Z,11.93
2022-12-06T12:25:26.050Z,11.73
2022-12-06T12:27:56.898Z,13.20
2022-12-06T12:30:32.700Z,11.88
2022-12-06T12:33:19.074Z,12.00
2022-12-06T12:35:50.686Z,12.57
2022-12-06T12:38:26.420Z,12.27
2022-12-06T12:40:58.171Z,11.05
2022-12-06T12:43:30.006Z,10.75
2022-12-06T12:46:09.807Z,10.50
2022-12-06T12:48:44.073Z,11.30
2022-12-06T12:51:47.839Z,10.15
2022-12-06T12:54:28.025Z,11.82
2022-12-06T12:56:58.515Z,12.80
2022-12-06T12:59:29.708Z,12.35
2022-12-06T13:02:01.723Z,11.38
2022-12-06T13:04:43.044Z,10.13
2022-12-06T13:07:22.865Z,9.80
2022-12-06T13:09:59.825Z,9.73
2022-12-06T13:12:33.488Z,8.85
2022-12-06T13:15:06.843Z,9.68
2022-12-06T13:17:38.777Z,10.50
2022-12-06T13:20:23.774Z,9.80
2022-12-06T13:22:55.387Z,9.35
2022-12-06T13:25:25.030Z,10.65
2022-12-06T13:28:00.890Z,10.57
2022-12-06T13:30:36.941Z,13.07
2022-12-06T13:33:09.007Z,13.65
2022-12-06T13:35:43.762Z,11.77
2022-12-06T13:38:27.117Z,12.52
2022-12-06T13:40:57.708Z,12.30
2022-12-06T13:43:54.201Z,12.63
2022-12-06T13:46:29.483Z,11.63
2022-12-06T13:48:59.718Z,11.32
2022-12-06T13:51:51.185Z,11.27
2022-12-06T13:54:38.789Z,11.70
2022-12-06T13:57:27.553Z,11.43
2022-12-06T13:59:57.201Z,10.15
2022-12-06T14:02:53.938Z,9.63
2022-12-06T14:08:25.719Z,9.55
2022-12-06T14:10:55.362Z,9.88
2022-12-06T14:13:25.039Z,9.57
2022-12-06T14:15:55.152Z,9.45
2022-12-06T14:18:26.911Z,9.10
2022-12-06T14:20:59.033Z,9.88
2022-12-06T14:23:38.516Z,10.38
2022-12-06T14:26:16.609Z,9.10
2022-12-06T14:28:46.634Z,9.98
2022-12-06T14:31:28.260Z,11.38
2022-12-06T14:33:58.848Z,10.65
2022-12-06T14:36:31.249Z,11.63
2022-12-06T14:39:05.963Z,11.57
2022-12-06T14:41:51.607Z,10.07
2022-12-06T14:44:22.069Z,11.38
2022-12-06T14:46:52.522Z,11.07
2022-12-06T14:49:36.527Z,12.00
2022-12-06T14:52:19.091Z,11.23
2022-12-06T14:54:52.117Z,11.60
2022-12-06T14:57:30.531Z,12.23
2022-12-06T15:00:15.163Z,12.20
2022-12-06T15:03:23.967Z,12.33
2022-12-06T15:05:57.523Z,12.02
2022-12-06T15:08:36.671Z,13.57
2022-12-06T15:11:47.294Z,12.50
2022-12-06T15:14:18.753Z,13.75
2022-12-06T15:16:58.756Z,13.30
2022-12-06T15:19:28.907Z,13.57
2022-12-06T15:21:58.437Z,14.23
2022-12-06T15:24:29.163Z,14.60
2022-12-06T15:27:01.295Z,14.27
2022-12-06T15:29:30.937Z,14.30
2022-12-06T15:32:00.499Z,14.75
2022-12-06T15:34:31.460Z,13.90
2022-12-06T15:37:37.452Z,12.13
2022-12-06T15:39:52.587Z,12.18
2022-12-06T15:42:25.534Z,11.90
2022-12-06T15:44:55.369Z,12.50
2022-12-06T15:47:24.900Z,12.40
2022-12-06T15:49:58.214Z,12.20
2022-12-06T15:52:28.349Z,11.70
2022-12-06T15:54:57.869Z,14.82
2022-12-06T15:57:30.104Z,14.87
2022-12-06T15:59:59.736Z,14.40
2022-12-06T16:02:29.322Z,13.15
2022-12-06T16:04:59.119Z,12.35
2022-12-06T16:07:28.904Z,13.00
2022-12-06T16:09:58.546Z,11.48
2022-12-06T16:12:50.822Z,11.07
2022-12-06T16:15:20.414Z,10.35
2022-12-06T16:17:49.929Z,10.40
2022-12-06T16:20:35.557Z,11.43
2022-12-06T16:23:21.122Z,9.90
2022-12-06T16:25:51.307Z,10.70
2022-12-06T16:28:23.489Z,10.50
2022-12-06T16:30:53.140Z,10.47
2022-12-06T16:33:24.336Z,10.18
2022-12-06T16:35:55.750Z,11.45
2022-12-06T16:38:25.524Z,11.30
2022-12-06T16:40:55.080Z,11.43
2022-12-06T16:43:27.311Z,12.68
2022-12-06T16:46:04.843Z,12.80
2022-12-06T16:48:35.489Z,11.50
2022-12-06T16:51:05.140Z,13.05
2022-12-06T16:53:34.779Z,13.20
2022-12-06T16:56:04.485Z,13.27
2022-12-06T16:58:36.937Z,13.50
2022-12-06T17:01:07.547Z,12.85
2022-12-06T17:03:37.175Z,13.30
2022-12-06T17:06:07.193Z,12.60
2022-12-06T17:08:36.860Z,11.93
2022-12-06T17:11:18.683Z,12.00
2022-12-06T17:13:50.797Z,12.73
2022-12-06T17:16:20.598Z,11.67
2022-12-06T17:18:50.579Z,11.82
2022-12-06T17:21:20.222Z,12.30
2022-12-06T17:23:49.811Z,12.80
2022-12-06T17:26:19.553Z,12.75
2022-12-06T17:28:51.689Z,12.27
2022-12-06T17:31:21.319Z,11.30
2022-12-06T17:33:51.667Z,11.60
2022-12-06T17:36:25.172Z,12.43
2022-12-06T17:38:56.789Z,12.95
2022-12-06T17:41:40.120Z,12.57
2022-12-06T17:44:13.126Z,12.10
2022-12-06T17:46:43.595Z,11.90
2022-12-06T17:49:16.541Z,12.48
2022-12-06T17:51:46.298Z,12.40
2022-12-06T17:54:16.469Z,13.27
2022-12-06T17:56:46.972Z,12.68
2022-12-06T17:59:22.402Z,12.52
2022-12-06T18:04:44.046Z,12.30
2022-12-06T18:07:14.312Z,12.03
2022-12-06T18:09:44.000Z,14.10
2022-12-06T18:12:14.128Z,12.07
2022-12-06T18:14:46.353Z,13.00
2022-12-06T18:17:16.348Z,13.65
2022-12-06T18:19:47.165Z,12.60
2022-12-06T18:22:17.021Z,14.32
2022-12-06T18:24:47.030Z,14.67
2022-12-06T18:27:17.572Z,13.40
2022-12-06T18:29:49.801Z,13.63
2022-12-06T18:32:19.507Z,13.40
2022-12-06T18:34:49.101Z,12.45
2022-12-06T18:37:18.610Z,13.07
2022-12-06T18:39:48.397Z,12.73
2022-12-06T18:42:18.011Z,11.00
2022-12-06T18:44:54.993Z,11.73
2022-12-06T18:47:27.612Z,11.50
2022-12-06T18:49:57.264Z,10.60
2022-12-06T18:52:28.069Z,11.25
2022-12-06T18:54:57.668Z,11.00
2022-12-06T18:57:31.876Z,10.20
2022-12-06T19:00:05.058Z,10.88
2022-12-06T19:02:34.998Z,9.45
2022-12-06T19:05:04.659Z,10.38
2022-12-06T19:07:34.254Z,9.80
2022-12-06T19:10:04.153Z,10.27
2022-12-06T19:12:33.918Z,9.48
2022-12-06T19:15:06.524Z,9.55
2022-12-06T19:17:36.166Z,10.30
2022-12-06T19:20:05.799Z,10.20
2022-12-06T19:22:35.487Z,11.00
2022-12-06T19:25:05.100Z,10.75
2022-12-06T19:27:34.897Z,11.40
2022-12-06T19:30:08.951Z,11.23
2022-12-06T19:32:38.642Z,11.07
2022-12-06T19:35:09.035Z,10.98
2022-12-06T19:37:38.579Z,12.68
2022-12-06T19:40:09.705Z,13.50
2022-12-06T19:42:51.855Z,12.15
2022-12-06T19:45:24.023Z,13.10
2022-12-06T19:47:53.597Z,12.77
2022-12-06T19:50:23.137Z,13.80
2022-12-06T19:52:53.035Z,12.60
2022-12-06T19:55:22.647Z,13.00
2022-12-06T19:57:52.411Z,13.75
2022-12-06T20:00:24.613Z,14.27
2022-12-06T20:02:54.345Z,13.45
2022-12-06T20:05:23.952Z,13.52
2022-12-06T20:07:53.523Z,13.52
2022-12-06T20:10:23.172Z,14.13
2022-12-06T20:12:52.714Z,14.90
2022-12-06T20:15:25.014Z,14.50
2022-12-06T20:17:54.675Z,14.80
2022-12-06T20:20:24.231Z,14.88
2022-12-06T20:22:53.756Z,16.25
2022-12-06T20:25:23.306Z,15.68
2022-12-06T20:27:56.803Z,15.10
2022-12-06T20:30:30.645Z,15.40
2022-12-06T20:33:00.473Z,16.90
2022-12-06T20:35:30.294Z,17.02
2022-12-06T20:38:00.080Z,17.42
2022-12-06T20:40:31.583Z,18.00
2022-12-06T20:43:01.476Z,19.63
2022-12-06T20:45:33.595Z,19.10
2022-12-06T20:48:03.211Z,20.60
2022-12-06T20:50:32.748Z,22.27
2022-12-06T20:53:02.413Z,21.42
2022-12-06T20:55:32.191Z,22.00
2022-12-06T20:58:01.881Z,22.00
2022-12-06T21:00:34.073Z,21.67
2022-12-06T21:03:03.673Z,22.83
2022-12-06T21:05:33.261Z,20.90
2022-12-06T21:08:02.858Z,21.77
2022-12-06T21:10:32.505Z,24.30
2022-12-06T21:13:05.976Z,22.47
2022-12-06T21:15:38.555Z,23.60
2022-12-06T21:18:08.178Z,24.00
2022-12-06T21:20:40.134Z,25.00
2022-12-06T21:23:09.759Z,27.60
2022-12-06T21:25:39.679Z,27.58
2022-12-06T21:28:09.230Z,28.38
2022-12-06T21:30:41.516Z,28.80
2022-12-06T21:33:11.130Z,29.85
2022-12-06T21:35:40.735Z,31.23
2022-12-06T21:38:10.273Z,30.05
2022-12-06T21:40:39.909Z,31.70
2022-12-06T21:43:09.880Z,31.88
2022-12-06T21:45:43.131Z,32.60
2022-12-06T21:48:12.714Z,31.73
2022-12-06T21:50:42.688Z,31.83
2022-12-06T21:53:12.278Z,33.47
2022-12-06T21:55:42.648Z,29.90
2022-12-06T21:58:12.260Z,33.33
2022-12-06T22:00:44.423Z,34.53
2022-12-06T22:03:19.206Z,34.33
2022-12-06T22:05:52.174Z,38.75
2022-12-06T22:08:21.833Z,36.20
2022-12-06T22:10:52.613Z,36.17
2022-12-06T22:13:22.245Z,37.35
2022-12-06T22:15:54.392Z,37.20
2022-12-06T22:18:24.018Z,37.20
2022-12-06T22:21:03.302Z,38.33
2022-12-06T22:23:33.541Z,38.10
2022-12-06T22:26:03.510Z,37.22
2022-12-06T22:28:33.063Z,37.55
2022-12-06T22:31:14.202Z,37.72
2022-12-06T22:33:44.500Z,38.43
2022-12-06T22:36:17.683Z,40.17
2022-12-06T22:38:50.361Z,39.03
2022-12-06T22:41:20.446Z,41.50
2022-12-06T22:43:53.324Z,40.28
2022-12-06T22:46:26.527Z,43.92
2022-12-06T22:48:56.381Z,42.88
2022-12-06T22:51:28.144Z,42.00
2022-12-06T22:53:59.135Z,41.70
2022-12-06T22:56:29.580Z,42.03
2022-12-06T22:59:00.550Z,41.47
2022-12-06T23:01:34.232Z,43.35
2022-12-06T23:04:05.669Z,44.25
2022-12-06T23:06:37.011Z,43.85
2022-12-06T23:09:07.282Z,44.17
2022-12-06T23:11:38.266Z,45.60
2022-12-06T23:14:08.323Z,42.38
2022-12-06T23:16:41.598Z,43.90
2022-12-06T23:19:12.405Z,43.40
2022-12-06T23:21:42.535Z,42.35
2022-12-06T23:24:14.440Z,43.28
2022-12-06T23:26:45.572Z,41.83
2022-12-06T23:29:15.470Z,42.10
2022-12-06T23:31:49.491Z,42.50
2022-12-06T23:34:22.390Z,43.40
2022-12-06T23:36:52.402Z,42.63
2022-12-06T23:39:22.232Z,40.75
2022-12-06T23:41:51.780Z,45.05
2022-12-06T23:44:21.487Z,41.55
2022-12-06T23:46:53.662Z,40.00
2022-12-06T23:49:24.215Z,41.65
2022-12-06T23:51:53.799Z,40.30
2022-12-06T23:54:23.427Z,41.88
2022-12-06T23:56:53.031Z,42.78
2022-12-06T23:59:22.549Z,44.30
